Hauptseite
METAR-TAF:

METAR-TAF

Flughäfen :

Sussex Airport

Sussex, New Jersey, Vereinigte Staaten

Breite: 41-12-01N, Länge: 074-37-23W, Höhe: 128 m

Beobachtung

Neuester Wetterbericht von vor 1 Stunde und 3 Minuten, um 00:53 UTC
Windstille
Temperatur 16°C
Luftfeuchtigkeit 63%
Luftdruck 1023 hPa
Sichtweite: 16.1 km
Himmel klar

METAR: KFWN 250053Z AUTO 00000KT 10SM CLR 16/09 A3022 RMK AO2 SLP231 T01610094

Zeit: 21:56 (01:56 UTC)


TAF: fehlend

Wetterbeobachtungen und Prognosen von mehr als 4000 Flughäfen (METAR und TAF Bericht).

Die verfügbaren Stationen werden durch gelbe und rote Markierungen auf der Karte dargestellt.

Führen Sie die Maus auf sie, um den Namen der Station zu sehen.

Darauf klicken, um die Beobachtung von Wetterbeobachtungen und Prognosen zu sehen.

Um die Karte zu ändern : klicken Sie auf den grünen Tasten mit einem schwarzen Kreuz Zum Vergrößern, auf den grünen Button mit einem Gedankenstrich zu verkleinern, oder auf die grünen Pfeile für benachbarte Karten.


METAR-TAF: